Time;durP1;ratioP1;P1;durP2;ratioP2;P2;SDS_P1;SDS_P2;PMS_P1;PMS_P2;Temp;Humidity;BMP_temperature;BMP_pressure;BME280_temperature;BME280_humidity;BME280_pressure;Samples;Min_cycle;Max_cycle;Signal;HPM_P1;HPM_P2
2021/04/08 00:00:18;;;;;;;9.27;2.28;;;5.10;99.90;;;;;;5033605;28;20275;-49
2021/04/08 00:02:45;;;;;;;7.63;3.05;;;4.90;99.90;;;;;;5033428;28;20259;-49
2021/04/08 00:05:14;;;;;;;12.15;3.70;;;4.80;99.90;;;;;;5033434;28;20303;-49
2021/04/08 00:07:41;;;;;;;12.10;3.67;;;5.20;99.90;;;;;;5033479;28;20235;-49
2021/04/08 00:10:10;;;;;;;16.02;3.88;;;5.00;99.90;;;;;;5033420;28;20251;-49
2021/04/08 00:12:36;;;;;;;8.65;3.47;;;4.90;99.90;;;;;;5032443;28;20625;-49
2021/04/08 00:15:05;;;;;;;9.60;3.65;;;4.90;99.90;;;;;;5033543;28;20274;-49
2021/04/08 00:17:31;;;;;;;7.90;3.50;;;4.90;99.90;;;;;;5033174;28;20558;-49
2021/04/08 00:19:57;;;;;;;9.43;3.67;;;5.10;99.90;;;;;;5033226;28;20235;-49
2021/04/08 00:22:23;;;;;;;16.02;4.38;;;5.30;99.90;;;;;;5032821;28;20731;-49
2021/04/08 00:24:50;;;;;;;10.75;3.70;;;5.00;99.90;;;;;;5032970;28;20274;-49
2021/04/08 00:27:17;;;;;;;11.85;3.58;;;5.20;99.90;;;;;;5032695;28;20250;-48
2021/04/08 00:29:43;;;;;;;9.18;3.72;;;5.00;99.90;;;;;;5031451;28;20261;-49
2021/04/08 00:32:09;;;;;;;7.88;3.35;;;4.90;99.90;;;;;;5032863;28;20205;-49
2021/04/08 00:34:35;;;;;;;13.63;4.35;;;5.20;99.90;;;;;;5032414;28;20755;-49
2021/04/08 00:37:02;;;;;;;11.13;5.05;;;5.20;99.90;;;;;;5032852;28;20196;-49
2021/04/08 00:39:28;;;;;;;12.45;3.78;;;5.10;99.90;;;;;;5032709;28;20533;-49
2021/04/08 00:41:55;;;;;;;11.40;3.25;;;4.80;99.90;;;;;;5032682;28;20192;-49
2021/04/08 00:44:22;;;;;;;12.20;3.28;;;4.90;99.90;;;;;;5032231;28;20217;-49
2021/04/08 00:46:48;;;;;;;7.57;3.50;;;5.10;99.90;;;;;;5032762;28;20351;-49
2021/04/08 00:49:14;;;;;;;9.50;3.50;;;5.00;99.90;;;;;;5032633;28;20676;-49
2021/04/08 00:51:40;;;;;;;9.68;3.20;;;4.70;99.90;;;;;;5032664;28;20307;-49
2021/04/08 00:54:07;;;;;;;11.77;3.78;;;5.00;99.90;;;;;;5030859;28;20228;-49
2021/04/08 00:56:33;;;;;;;14.90;3.25;;;4.90;99.90;;;;;;5032520;28;20213;-49
2021/04/08 00:59:02;;;;;;;9.50;2.70;;;5.20;99.90;;;;;;5032456;28;20440;-49
2021/04/08 01:01:29;;;;;;;9.52;3.42;;;4.90;99.90;;;;;;5032407;28;20701;-49
2021/04/08 01:03:55;;;;;;;10.55;4.30;;;5.00;99.90;;;;;;5031760;28;20248;-49
2021/04/08 01:06:22;;;;;;;9.55;3.63;;;5.20;99.90;;;;;;5032341;28;20200;-49
2021/04/08 01:08:48;;;;;;;8.77;3.17;;;4.80;99.90;;;;;;5032196;28;20287;-49
2021/04/08 01:11:14;;;;;;;10.45;3.58;;;5.10;99.90;;;;;;5032142;28;20216;-50
2021/04/08 01:13:42;;;;;;;5.18;3.20;;;5.00;99.90;;;;;;5031589;28;20280;-49
2021/04/08 01:16:15;;;;;;;8.57;3.92;;;5.10;99.90;;;;;;5031811;28;20192;-49
2021/04/08 01:18:53;;;;;;;14.65;4.10;;;5.10;99.90;;;;;;5031983;28;20685;-49
2021/04/08 01:21:28;;;;;;;9.30;3.83;;;5.20;99.90;;;;;;5032151;28;20262;-50
2021/04/08 01:24:27;;;;;;;12.55;4.90;;;5.20;99.90;;;;;;5031442;28;20269;-50
2021/04/08 01:27:35;;;;;;;11.05;4.30;;;5.30;99.90;;;;;;5031932;28;20224;-49
2021/04/08 01:30:16;;;;;;;8.48;4.00;;;5.20;99.90;;;;;;5031766;28;20326;-49
2021/04/08 01:32:47;;;;;;;8.43;4.68;;;4.90;99.90;;;;;;5031409;28;20657;-49
2021/04/08 01:35:17;;;;;;;9.60;4.10;;;5.00;99.90;;;;;;5031698;28;20697;-48
2021/04/08 01:37:49;;;;;;;14.98;3.78;;;5.30;99.90;;;;;;5031626;28;20196;-49
2021/04/08 01:40:18;;;;;;;6.25;3.63;;;5.20;99.90;;;;;;5031755;28;20212;-49
2021/04/08 01:42:46;;;;;;;10.60;4.25;;;5.20;99.90;;;;;;5031468;28;20193;-49
2021/04/08 01:45:15;;;;;;;13.50;5.13;;;4.70;99.90;;;;;;5031541;28;20304;-49
2021/04/08 01:47:45;;;;;;;19.38;5.90;;;5.20;99.90;;;;;;5031626;28;20193;-49
2021/04/08 01:50:13;;;;;;;8.88;4.85;;;5.10;99.90;;;;;;5031430;28;20208;-49
2021/04/08 01:52:41;;;;;;;14.98;6.18;;;5.20;99.90;;;;;;5031131;28;20193;-50
2021/04/08 01:55:09;;;;;;;11.75;4.50;;;5.20;99.90;;;;;;5031389;28;20213;-50
2021/04/08 01:57:37;;;;;;;14.20;4.30;;;5.10;99.90;;;;;;5031466;28;20230;-49
2021/04/08 02:00:06;;;;;;;13.95;4.15;;;5.30;99.90;;;;;;5031420;28;20228;-50
2021/04/08 02:02:37;;;;;;;8.75;3.13;;;5.20;99.90;;;;;;5031083;28;20211;-50
2021/04/08 02:05:08;;;;;;;11.25;4.43;;;5.10;99.90;;;;;;5031230;28;20243;-50
2021/04/08 02:07:36;;;;;;;13.32;4.65;;;5.10;99.90;;;;;;5030119;28;20235;-50
2021/04/08 02:10:05;;;;;;;5.55;3.08;;;5.00;99.90;;;;;;5029878;28;20307;-50
2021/04/08 02:12:32;;;;;;;11.15;3.70;;;5.30;99.90;;;;;;5030992;28;20225;-50
2021/04/08 02:14:59;;;;;;;10.77;3.33;;;5.10;99.90;;;;;;5031006;28;20311;-50
2021/04/08 02:17:27;;;;;;;11.40;3.58;;;5.20;99.90;;;;;;5031155;28;20196;-50
2021/04/08 02:19:53;;;;;;;14.38;4.45;;;5.20;99.90;;;;;;5031048;28;20271;-50
2021/04/08 02:22:20;;;;;;;7.63;3.88;;;5.20;99.90;;;;;;5030685;28;20752;-49
2021/04/08 02:24:48;;;;;;;8.32;4.75;;;5.10;99.90;;;;;;5030928;28;20224;-50
2021/04/08 02:27:15;;;;;;;13.63;4.25;;;5.00;99.90;;;;;;5031027;28;20201;-50
2021/04/08 02:29:42;;;;;;;11.63;4.82;;;5.30;99.90;;;;;;5031011;28;20502;-50
2021/04/08 02:32:10;;;;;;;12.65;4.70;;;5.20;99.90;;;;;;5030999;28;20584;-50
2021/04/08 02:34:37;;;;;;;7.68;4.18;;;5.30;99.90;;;;;;5030411;28;20252;-50
2021/04/08 02:37:03;;;;;;;9.60;4.47;;;5.20;99.90;;;;;;5035190;28;20192;-50
2021/04/08 02:39:30;;;;;;;13.65;5.60;;;5.20;99.90;;;;;;5037334;28;20246;-50
2021/04/08 02:41:56;;;;;;;14.60;4.50;;;5.20;99.90;;;;;;5037452;28;20566;-49
2021/04/08 02:44:23;;;;;;;10.52;4.43;;;5.30;99.90;;;;;;5037266;28;20232;-50
2021/04/08 02:46:49;;;;;;;12.80;4.20;;;5.20;99.90;;;;;;5037056;28;20220;-50
2021/04/08 02:49:15;;;;;;;17.45;4.60;;;5.30;99.90;;;;;;5037248;28;20191;-49
2021/04/08 02:51:45;;;;;;;10.80;4.40;;;5.10;99.90;;;;;;5035888;28;20319;-50
2021/04/08 02:54:19;;;;;;;12.75;4.72;;;4.80;99.90;;;;;;5037048;28;20591;-50
2021/04/08 02:56:51;;;;;;;12.60;5.30;;;4.80;99.90;;;;;;5037336;28;20228;-50
2021/04/08 02:59:22;;;;;;;14.43;4.13;;;5.00;99.90;;;;;;5036228;28;20203;-50
2021/04/08 03:01:51;;;;;;;10.93;4.20;;;5.00;99.90;;;;;;5036566;28;20258;-50
2021/04/08 03:04:21;;;;;;;12.32;3.78;;;4.60;99.90;;;;;;5036987;28;20290;-49
2021/04/08 03:06:48;;;;;;;10.02;4.07;;;4.70;99.90;;;;;;5037340;28;20279;-49
2021/04/08 03:09:15;;;;;;;11.57;3.70;;;5.00;99.90;;;;;;5037404;28;20203;-50
2021/04/08 03:11:43;;;;;;;16.75;4.32;;;4.90;99.90;;;;;;5037009;28;20669;-50
2021/04/08 03:14:12;;;;;;;8.50;4.38;;;4.90;99.90;;;;;;5036665;28;20369;-49
2021/04/08 03:16:41;;;;;;;16.95;4.93;;;4.80;99.90;;;;;;5036914;28;20673;-49
2021/04/08 03:19:10;;;;;;;13.55;4.80;;;4.90;99.90;;;;;;5037041;28;20615;-49
2021/04/08 03:21:38;;;;;;;12.82;4.10;;;4.80;99.90;;;;;;5037187;28;20189;-48
2021/04/08 03:24:05;;;;;;;8.52;3.80;;;4.80;99.90;;;;;;5036752;28;20216;-50
2021/04/08 03:26:33;;;;;;;12.32;4.10;;;4.90;99.90;;;;;;5037050;28;20193;-50
2021/04/08 03:29:00;;;;;;;9.30;4.53;;;5.00;99.90;;;;;;5037116;28;20224;-49
2021/04/08 03:31:28;;;;;;;12.48;4.47;;;4.90;99.90;;;;;;5037045;28;20248;-50
2021/04/08 03:33:56;;;;;;;9.98;4.53;;;4.80;99.90;;;;;;5036556;28;20245;-50
2021/04/08 03:36:22;;;;;;;12.98;4.90;;;4.80;99.90;;;;;;5037198;28;20232;-50
2021/04/08 03:38:49;;;;;;;9.23;4.00;;;5.00;99.90;;;;;;5036936;28;20214;-50
2021/04/08 03:41:18;;;;;;;7.60;4.20;;;4.70;99.90;;;;;;5036832;28;20332;-50
2021/04/08 03:43:45;;;;;;;11.98;4.75;;;4.60;99.90;;;;;;5036353;28;20311;-50
2021/04/08 03:46:12;;;;;;;11.80;4.97;;;4.90;99.90;;;;;;5036885;28;20196;-50
2021/04/08 03:48:42;;;;;;;10.43;4.60;;;5.00;99.90;;;;;;5033624;28;20211;-50
2021/04/08 03:51:09;;;;;;;10.13;4.93;;;4.90;99.90;;;;;;5033717;28;20251;-49
2021/04/08 03:53:38;;;;;;;9.40;4.95;;;4.60;99.90;;;;;;5032945;28;20197;-50
2021/04/08 03:56:06;;;;;;;12.85;5.35;;;4.60;99.90;;;;;;5033704;28;20264;-50
2021/04/08 03:58:33;;;;;;;10.25;4.55;;;4.90;99.90;;;;;;5033728;28;20583;-49
2021/04/08 04:01:01;;;;;;;14.10;5.40;;;4.90;99.90;;;;;;5033521;28;20653;-49
2021/04/08 04:03:27;;;;;;;25.33;5.68;;;4.70;99.90;;;;;;5032970;28;20220;-49
2021/04/08 04:05:55;;;;;;;9.27;4.75;;;4.10;99.90;;;;;;5033729;28;20583;-49
2021/04/08 04:08:21;;;;;;;13.73;5.38;;;4.50;99.90;;;;;;5033091;28;20275;-48
2021/04/08 04:10:48;;;;;;;12.90;5.78;;;4.50;99.90;;;;;;5033201;28;20252;-49
2021/04/08 04:13:16;;;;;;;13.40;6.22;;;4.50;99.90;;;;;;5033245;28;20584;-48
2021/04/08 04:15:47;;;;;;;18.98;6.57;;;4.40;99.90;;;;;;5033266;28;20247;-48
2021/04/08 04:18:17;;;;;;;11.15;5.07;;;4.60;99.90;;;;;;5033374;28;20267;-48
2021/04/08 04:20:44;;;;;;;10.05;5.18;;;4.50;99.90;;;;;;5033665;28;20189;-48
2021/04/08 04:23:12;;;;;;;20.83;6.93;;;4.40;99.90;;;;;;5032782;28;20205;-51
2021/04/08 04:25:38;;;;;;;16.13;6.32;;;4.30;99.90;;;;;;5033044;28;20224;-51
2021/04/08 04:28:05;;;;;;;10.00;5.22;;;4.50;99.90;;;;;;5032944;28;20592;-49
2021/04/08 04:30:31;;;;;;;20.33;6.10;;;4.20;99.90;;;;;;5033170;28;20562;-49
2021/04/08 04:32:57;;;;;;;12.88;6.60;;;4.60;99.90;;;;;;5033122;28;20235;-48
2021/04/08 04:35:24;;;;;;;15.60;6.07;;;4.40;99.90;;;;;;5033178;28;20216;-50
2021/04/08 04:37:50;;;;;;;15.40;6.45;;;4.30;99.90;;;;;;5033016;28;20274;-49
2021/04/08 04:40:18;;;;;;;13.30;7.28;;;4.30;99.90;;;;;;5033032;28;20181;-49
2021/04/08 04:42:44;;;;;;;12.35;6.72;;;4.20;99.90;;;;;;5032366;28;20200;-49
2021/04/08 04:45:12;;;;;;;13.57;5.00;;;4.20;99.90;;;;;;5068657;22;20231;-46
2021/04/08 04:47:40;;;;;;;16.77;6.53;;;4.40;99.90;;;;;;5073328;28;20188;-47
2021/04/08 04:50:08;;;;;;;12.75;4.35;;;4.40;99.90;;;;;;5073204;28;20655;-47
2021/04/08 04:52:35;;;;;;;17.65;4.95;;;4.40;99.90;;;;;;5074086;28;20219;-48
2021/04/08 04:55:01;;;;;;;15.55;5.82;;;4.30;99.90;;;;;;5074291;28;20580;-47
2021/04/08 04:57:28;;;;;;;12.48;5.20;;;4.30;99.90;;;;;;5073208;28;20237;-47
2021/04/08 04:59:54;;;;;;;10.73;4.90;;;4.20;99.90;;;;;;5072932;28;20210;-46
2021/04/08 05:02:20;;;;;;;11.65;4.75;;;4.50;99.90;;;;;;5072770;28;20275;-46
2021/04/08 05:04:47;;;;;;;10.48;4.47;;;4.50;99.90;;;;;;5073463;28;20241;-49
2021/04/08 05:07:13;;;;;;;9.52;5.38;;;4.40;99.90;;;;;;5073676;28;20211;-46
2021/04/08 05:09:39;;;;;;;12.45;4.93;;;4.50;99.90;;;;;;5072926;28;20278;-47
2021/04/08 05:12:06;;;;;;;16.30;5.65;;;4.50;99.90;;;;;;5072852;28;20242;-47
2021/04/08 05:14:33;;;;;;;10.35;4.90;;;4.40;99.90;;;;;;5072418;28;20253;-47
2021/04/08 05:17:00;;;;;;;15.82;4.85;;;4.40;99.90;;;;;;5072717;28;20195;-46
2021/04/08 05:19:26;;;;;;;21.15;6.15;;;4.40;99.90;;;;;;5072230;28;20297;-46
2021/04/08 05:21:52;;;;;;;10.75;4.45;;;4.50;99.90;;;;;;5071222;28;20196;-46
2021/04/08 05:24:19;;;;;;;14.48;7.63;;;4.50;99.90;;;;;;5072183;28;20622;-46
2021/04/08 05:26:45;;;;;;;14.90;5.80;;;4.60;99.90;;;;;;5072631;28;20187;-48
2021/04/08 05:29:12;;;;;;;12.55;6.03;;;4.50;99.90;;;;;;5072266;28;20194;-46
2021/04/08 05:31:39;;;;;;;13.13;5.70;;;4.40;99.90;;;;;;5070908;28;20352;-46
2021/04/08 05:34:05;;;;;;;17.52;6.57;;;4.60;99.90;;;;;;5071683;28;20206;-49
2021/04/08 05:36:31;;;;;;;14.07;5.63;;;4.60;99.90;;;;;;5071092;28;20257;-47
2021/04/08 05:38:58;;;;;;;13.80;4.80;;;4.70;99.90;;;;;;5072098;28;20679;-46
2021/04/08 05:41:24;;;;;;;14.65;5.18;;;4.90;99.90;;;;;;5071876;28;20211;-47
2021/04/08 05:43:50;;;;;;;13.80;5.32;;;4.70;99.90;;;;;;5070580;28;20713;-48
2021/04/08 05:46:17;;;;;;;12.63;6.45;;;4.60;99.90;;;;;;5072231;28;20206;-47
2021/04/08 05:48:44;;;;;;;15.00;5.63;;;4.80;99.90;;;;;;5071713;28;20206;-48
2021/04/08 05:51:10;;;;;;;15.90;5.40;;;5.00;99.90;;;;;;5071941;28;20268;-48
2021/04/08 05:53:36;;;;;;;13.32;5.63;;;4.70;99.90;;;;;;5071778;28;20195;-47
2021/04/08 05:56:03;;;;;;;17.58;8.07;;;4.70;99.90;;;;;;5071898;28;20242;-48
2021/04/08 05:58:29;;;;;;;20.15;6.30;;;4.60;99.90;;;;;;5071507;28;20256;-48
2021/04/08 06:00:58;;;;;;;13.27;5.53;;;4.80;99.90;;;;;;5071700;28;20423;-47
2021/04/08 06:03:24;;;;;;;18.02;5.10;;;4.70;99.90;;;;;;5071590;28;20659;-47
2021/04/08 06:05:51;;;;;;;12.65;6.45;;;4.40;99.90;;;;;;5071972;28;20283;-48
2021/04/08 06:08:18;;;;;;;20.75;4.45;;;4.80;99.90;;;;;;5071950;28;20427;-47
2021/04/08 06:10:44;;;;;;;11.20;5.45;;;4.60;99.90;;;;;;5070929;28;20258;-48
2021/04/08 06:13:10;;;;;;;10.52;5.20;;;4.70;99.90;;;;;;5071429;28;20646;-48
2021/04/08 06:15:37;;;;;;;12.35;5.75;;;4.70;99.90;;;;;;5071935;28;20291;-47
2021/04/08 06:18:03;;;;;;;18.38;6.90;;;4.90;99.90;;;;;;5071900;28;20196;-48
2021/04/08 06:20:30;;;;;;;12.38;5.00;;;4.90;99.90;;;;;;5071570;28;20198;-48
2021/04/08 06:22:57;;;;;;;11.85;5.68;;;4.90;99.90;;;;;;5071176;28;20217;-46
2021/04/08 06:25:24;;;;;;;14.43;6.45;;;4.80;99.90;;;;;;5071367;28;20234;-46
2021/04/08 06:27:50;;;;;;;15.20;6.82;;;5.10;99.90;;;;;;5071359;28;20196;-47
2021/04/08 06:30:18;;;;;;;14.05;6.00;;;5.10;99.90;;;;;;5071700;28;20191;-46
2021/04/08 06:32:44;;;;;;;15.65;6.63;;;5.20;99.90;;;;;;5072537;28;20195;-47
2021/04/08 06:35:11;;;;;;;11.10;5.85;;;4.90;99.90;;;;;;5073016;28;20214;-47
2021/04/08 06:37:37;;;;;;;15.90;5.43;;;5.20;99.90;;;;;;5072779;28;20199;-48
2021/04/08 06:40:07;;;;;;;7.78;5.10;;;4.90;99.90;;;;;;5072005;28;20305;-48
2021/04/08 06:42:35;;;;;;;14.68;4.45;;;5.00;99.90;;;;;;5069205;28;20245;-48
2021/04/08 06:45:03;;;;;;;13.30;5.10;;;5.10;99.90;;;;;;5071193;28;20309;-48
2021/04/08 06:47:34;;;;;;;17.40;4.95;;;5.20;99.90;;;;;;5071287;28;20200;-48
2021/04/08 06:50:06;;;;;;;13.10;5.65;;;5.00;99.90;;;;;;5071094;28;20195;-48
2021/04/08 06:52:33;;;;;;;10.07;4.85;;;5.00;99.90;;;;;;5070928;28;20215;-48
2021/04/08 06:55:00;;;;;;;14.18;4.70;;;5.20;99.90;;;;;;5071591;28;20682;-47
2021/04/08 06:57:28;;;;;;;11.10;5.20;;;5.10;99.90;;;;;;5071732;28;20225;-46
2021/04/08 06:59:57;;;;;;;9.82;5.40;;;5.10;99.90;;;;;;5071765;28;20191;-48
2021/04/08 07:02:23;;;;;;;14.57;5.32;;;5.50;99.90;;;;;;5071476;28;20667;-47
2021/04/08 07:04:49;;;;;;;14.38;5.00;;;5.50;99.90;;;;;;5072161;28;20246;-48
2021/04/08 07:07:16;;;;;;;14.75;4.95;;;5.50;99.90;;;;;;5071255;28;20210;-47
2021/04/08 07:09:43;;;;;;;16.75;4.85;;;5.10;99.90;;;;;;5071323;28;20207;-48
2021/04/08 07:12:11;;;;;;;13.40;4.28;;;5.70;99.90;;;;;;5070946;28;20219;-49
2021/04/08 07:14:39;;;;;;;15.98;4.95;;;5.40;99.90;;;;;;5070908;28;20318;-48
2021/04/08 07:17:09;;;;;;;16.05;4.93;;;5.50;99.90;;;;;;5069378;28;20328;-47
2021/04/08 07:19:36;;;;;;;14.63;6.60;;;4.90;99.90;;;;;;5070958;28;20195;-47
2021/04/08 07:22:03;;;;;;;14.10;5.35;;;5.50;99.90;;;;;;5071118;28;20187;-49
2021/04/08 07:24:29;;;;;;;11.95;4.88;;;5.60;99.90;;;;;;5072368;28;20267;-47
2021/04/08 07:27:00;;;;;;;24.02;9.07;;;5.20;99.90;;;;;;5074847;28;20199;-47
2021/04/08 07:29:53;;;;;;;10.23;5.47;;;5.80;99.90;;;;;;5074848;28;20195;-47
2021/04/08 07:32:28;;;;;;;29.48;6.28;;;5.80;99.90;;;;;;5074383;28;20250;-49
2021/04/08 07:34:56;;;;;;;22.50;6.88;;;5.90;99.90;;;;;;5075471;28;20219;-48
2021/04/08 07:37:26;;;;;;;16.80;5.07;;;6.10;99.90;;;;;;5076014;28;20203;-48
2021/04/08 07:39:52;;;;;;;5.90;4.53;;;6.10;99.90;;;;;;5076736;28;20626;-49
2021/04/08 07:42:24;;;;;;;15.02;5.80;;;6.00;99.90;;;;;;5074298;28;20445;-48
2021/04/08 07:44:53;;;;;;;9.60;5.03;;;5.60;99.90;;;;;;5073993;28;20581;-48
2021/04/08 07:47:22;;;;;;;16.30;5.68;;;6.30;99.90;;;;;;5074399;28;20434;-48
2021/04/08 07:49:51;;;;;;;15.77;4.77;;;6.30;99.90;;;;;;5074353;28;20235;-48
2021/04/08 07:52:21;;;;;;;10.57;5.20;;;6.20;99.90;;;;;;5074623;28;20477;-48
2021/04/08 07:55:12;;;;;;;11.60;4.20;;;6.20;99.90;;;;;;5073690;28;20814;-47
2021/04/08 07:57:54;;;;;;;10.37;4.27;;;6.50;99.90;;;;;;5074689;28;20942;-47
2021/04/08 08:00:24;;;;;;;19.27;5.03;;;5.90;99.90;;;;;;5073367;28;20471;-48
2021/04/08 08:02:51;;;;;;;8.33;4.50;;;6.40;99.90;;;;;;5074348;28;20812;-48
2021/04/08 08:05:24;;;;;;;11.13;4.53;;;6.40;99.90;;;;;;5074323;28;20511;-47
2021/04/08 08:07:52;;;;;;;6.50;2.90;;;6.60;99.90;;;;;;5073957;28;20469;-47
2021/04/08 08:10:24;;;;;;;20.50;5.30;;;6.70;99.90;;;;;;5074503;28;20787;-47
2021/04/08 08:12:51;;;;;;;9.77;3.43;;;6.60;99.90;;;;;;5073729;28;20434;-48
2021/04/08 08:15:21;;;;;;;9.07;2.77;;;7.10;99.90;;;;;;5074208;28;20454;-46
2021/04/08 08:17:49;;;;;;;15.70;3.67;;;6.90;99.90;;;;;;5074478;28;20530;-47
2021/04/08 08:20:16;;;;;;;14.60;3.90;;;7.20;99.90;;;;;;5073858;28;20435;-47
2021/04/08 08:22:43;;;;;;;9.77;4.10;;;7.00;99.90;;;;;;5074131;28;20485;-47
2021/04/08 08:25:11;;;;;;;10.70;4.23;;;7.10;99.90;;;;;;5073960;28;20829;-46
2021/04/08 08:27:40;;;;;;;14.80;4.30;;;6.80;99.90;;;;;;5072526;28;20446;-48
2021/04/08 08:30:09;;;;;;;18.53;4.50;;;6.90;99.90;;;;;;5074233;28;20884;-48
2021/04/08 08:32:36;;;;;;;6.23;3.03;;;6.80;99.90;;;;;;5073788;28;20457;-48
2021/04/08 08:35:03;;;;;;;11.57;3.57;;;6.60;99.90;;;;;;5073295;28;20433;-46
2021/04/08 08:37:32;;;;;;;11.87;4.47;;;6.90;99.90;;;;;;5073495;28;20434;-48
2021/04/08 08:39:59;;;;;;;10.60;3.00;;;7.30;99.70;;;;;;5073557;28;20961;-47
2021/04/08 08:42:26;;;;;;;13.23;3.87;;;7.10;99.60;;;;;;5073209;28;20434;-47
2021/04/08 08:44:53;;;;;;;12.60;4.27;;;7.10;99.80;;;;;;5073254;28;21000;-48
2021/04/08 08:47:23;;;;;;;9.30;3.63;;;6.70;99.30;;;;;;5073076;28;20435;-47
2021/04/08 08:49:52;;;;;;;8.60;3.23;;;7.60;99.00;;;;;;5071903;28;20455;-48
2021/04/08 08:52:21;;;;;;;9.90;3.67;;;7.70;99.00;;;;;;5071402;28;20523;-47
2021/04/08 08:54:48;;;;;;;7.43;2.60;;;7.40;98.70;;;;;;5073292;28;20545;-46
2021/04/08 08:57:16;;;;;;;8.40;2.80;;;7.30;98.50;;;;;;5072917;28;20427;-47
2021/04/08 08:59:43;;;;;;;9.50;3.57;;;7.60;97.80;;;;;;5072896;28;20435;-46
2021/04/08 09:02:10;;;;;;;15.13;3.40;;;7.40;97.50;;;;;;5073228;28;20958;-48
2021/04/08 09:04:37;;;;;;;9.67;2.57;;;7.40;97.40;;;;;;5072817;28;20451;-46
2021/04/08 09:07:05;;;;;;;7.53;2.60;;;7.70;96.50;;;;;;5073453;28;20530;-48
2021/04/08 09:09:36;;;;;;;7.60;2.83;;;7.60;96.60;;;;;;5072893;28;20485;-47
2021/04/08 09:12:08;;;;;;;8.33;2.50;;;7.50;96.10;;;;;;5072976;28;20477;-47
2021/04/08 09:14:34;;;;;;;7.90;2.60;;;7.70;96.10;;;;;;5072656;28;20885;-48
2021/04/08 09:17:01;;;;;;;9.23;3.03;;;7.70;95.80;;;;;;5073623;28;20437;-47
2021/04/08 09:19:29;;;;;;;9.30;3.03;;;7.90;95.50;;;;;;5072111;28;20790;-47
2021/04/08 09:21:58;;;;;;;6.17;3.20;;;7.80;95.60;;;;;;5073355;28;20485;-47
2021/04/08 09:24:36;;;;;;;11.23;3.00;;;7.40;94.60;;;;;;5072567;28;20486;-47
2021/04/08 09:27:04;;;;;;;13.23;2.13;;;7.90;94.60;;;;;;5073445;28;20500;-47
2021/04/08 09:29:48;;;;;;;9.03;2.37;;;7.80;94.10;;;;;;5073820;28;20428;-48
2021/04/08 09:32:23;;;;;;;7.37;3.10;;;7.80;92.90;;;;;;5073409;28;21053;-49
2021/04/08 09:35:15;;;;;;;8.27;2.40;;;8.00;92.80;;;;;;5072931;28;20454;-47
2021/04/08 09:38:22;;;;;;;4.83;2.30;;;7.80;92.20;;;;;;5072188;28;20457;-49
2021/04/08 09:41:00;;;;;;;10.63;2.33;;;7.90;91.50;;;;;;5073236;28;20801;-49
2021/04/08 09:43:26;;;;;;;6.27;2.17;;;8.10;91.60;;;;;;5071367;28;20942;-48
2021/04/08 09:46:01;;;;;;;6.27;2.47;;;8.20;91.80;;;;;;5071282;28;20463;-47
2021/04/08 09:48:41;;;;;;;8.40;2.50;;;8.00;90.50;;;;;;5070773;28;20455;-48
2021/04/08 09:51:08;;;;;;;7.00;2.93;;;8.10;90.60;;;;;;5072361;28;20558;-47
2021/04/08 09:54:00;;;;;;;9.33;2.90;;;8.30;91.40;;;;;;5072029;28;20430;-49
2021/04/08 09:56:58;;;;;;;5.97;1.97;;;8.90;91.20;;;;;;5071908;28;20928;-48
2021/04/08 09:59:27;;;;;;;7.83;2.63;;;9.30;90.60;;;;;;5071957;28;20411;-48
2021/04/08 10:01:53;;;;;;;5.63;1.80;;;9.30;89.80;;;;;;5071819;28;20475;-48
2021/04/08 10:04:23;;;;;;;6.03;2.13;;;9.50;88.10;;;;;;5071705;28;21060;-48
2021/04/08 10:07:00;;;;;;;8.93;2.30;;;9.30;85.00;;;;;;5071939;28;20438;-48
2021/04/08 10:09:27;;;;;;;10.50;4.00;;;8.80;81.70;;;;;;5071763;28;20435;-49
2021/04/08 10:11:53;;;;;;;8.53;2.17;;;8.80;84.30;;;;;;5070630;28;20451;-48
2021/04/08 10:14:22;;;;;;;16.60;2.80;;;8.60;85.30;;;;;;5071487;28;20456;-47
2021/04/08 10:17:07;;;;;;;5.87;2.33;;;8.60;84.60;;;;;;5072034;28;20441;-47
2021/04/08 10:19:36;;;;;;;5.90;2.63;;;8.50;84.40;;;;;;5072312;28;20963;-48
2021/04/08 10:22:03;;;;;;;10.10;3.57;;;8.70;85.30;;;;;;5072297;28;20498;-47
2021/04/08 10:24:35;;;;;;;12.23;1.93;;;9.10;86.60;;;;;;5071899;28;20946;-47
2021/04/08 10:27:01;;;;;;;5.27;1.90;;;8.60;83.60;;;;;;5072814;28;20455;-47
2021/04/08 10:29:33;;;;;;;5.40;1.93;;;7.90;82.00;;;;;;5071774;28;20495;-47
2021/04/08 10:32:00;;;;;;;4.30;1.87;;;8.60;82.50;;;;;;5071480;28;20475;-47
2021/04/08 10:34:33;;;;;;;8.30;2.30;;;8.80;83.30;;;;;;5071255;28;20458;-47
2021/04/08 10:37:00;;;;;;;6.03;1.90;;;8.60;81.30;;;;;;5070129;28;20449;-47
2021/04/08 10:39:28;;;;;;;10.50;2.30;;;8.90;82.50;;;;;;5071322;28;20439;-46
2021/04/08 10:42:00;;;;;;;6.50;2.10;;;8.60;79.00;;;;;;5071420;28;20440;-47
2021/04/08 10:44:29;;;;;;;6.87;2.40;;;8.20;79.70;;;;;;5070305;28;20523;-49
2021/04/08 10:46:59;;;;;;;7.13;2.47;;;8.30;80.40;;;;;;5071400;28;20765;-47
2021/04/08 10:49:27;;;;;;;9.23;2.47;;;8.10;80.40;;;;;;5071232;28;20431;-49
2021/04/08 10:51:54;;;;;;;8.00;2.70;;;8.40;80.80;;;;;;5071409;28;20472;-48
2021/04/08 10:54:26;;;;;;;6.03;2.53;;;8.40;82.00;;;;;;5070804;28;20451;-48
2021/04/08 10:56:53;;;;;;;4.57;2.10;;;7.90;81.90;;;;;;5071507;28;20439;-47
2021/04/08 10:59:21;;;;;;;7.70;2.17;;;8.40;80.90;;;;;;5075395;28;20444;-48
2021/04/08 11:01:48;;;;;;;6.87;2.70;;;8.60;78.00;;;;;;5075821;28;20477;-48
2021/04/08 11:04:18;;;;;;;8.10;2.10;;;8.50;79.20;;;;;;5075253;28;20518;-49
2021/04/08 11:06:44;;;;;;;5.83;2.20;;;8.50;79.30;;;;;;5075176;28;20483;-48
2021/04/08 11:09:11;;;;;;;8.70;4.13;;;8.50;79.20;;;;;;5075275;28;20428;-48
2021/04/08 11:11:37;;;;;;;7.47;2.80;;;8.80;80.30;;;;;;5075366;28;20602;-48
2021/04/08 11:14:04;;;;;;;4.67;2.40;;;8.70;79.80;;;;;;5074828;28;20427;-49
2021/04/08 11:16:32;;;;;;;7.00;2.10;;;8.30;77.80;;;;;;5074653;28;20438;-48
2021/04/08 11:19:01;;;;;;;6.20;2.00;;;8.70;77.40;;;;;;5074833;28;20941;-47
2021/04/08 11:21:29;;;;;;;8.07;2.23;;;8.70;75.40;;;;;;5075009;28;20930;-48
2021/04/08 11:23:57;;;;;;;4.93;1.83;;;8.50;75.40;;;;;;5074707;28;20532;-48
2021/04/08 11:26:23;;;;;;;5.83;1.90;;;8.80;76.00;;;;;;5072699;28;20448;-49
2021/04/08 11:28:57;;;;;;;3.47;1.80;;;8.30;75.40;;;;;;5072985;28;20429;-49
2021/04/08 11:31:26;;;;;;;6.13;1.80;;;8.70;72.90;;;;;;5074867;28;20475;-49
2021/04/08 11:33:56;;;;;;;5.50;2.60;;;8.60;74.20;;;;;;5074568;28;20449;-49
2021/04/08 11:36:24;;;;;;;7.80;2.40;;;8.80;76.40;;;;;;5072739;28;20455;-48
2021/04/08 11:38:51;;;;;;;5.27;2.83;;;8.70;77.60;;;;;;5074696;28;20439;-51
2021/04/08 11:41:18;;;;;;;3.20;2.33;;;9.00;78.00;;;;;;5074426;28;20438;-49
2021/04/08 11:43:48;;;;;;;5.13;1.80;;;8.80;76.90;;;;;;5074026;28;20432;-49
2021/04/08 11:46:32;;;;;;;9.13;3.83;;;9.00;76.90;;;;;;5074175;28;20714;-49
2021/04/08 11:49:00;;;;;;;7.73;2.70;;;9.30;76.90;;;;;;5074192;28;20433;-49
2021/04/08 11:51:28;;;;;;;8.47;2.20;;;9.00;77.20;;;;;;5074002;28;20782;-48
2021/04/08 11:53:55;;;;;;;8.17;2.47;;;9.10;77.90;;;;;;5074132;28;20441;-48
2021/04/08 11:56:30;;;;;;;7.57;2.30;;;9.40;77.20;;;;;;5074059;28;20865;-48
2021/04/08 11:59:11;;;;;;;6.03;2.20;;;9.30;75.80;;;;;;5072915;28;20440;-48
2021/04/08 12:01:40;;;;;;;5.80;2.70;;;9.30;75.40;;;;;;5074090;28;20429;-48
2021/04/08 12:04:14;;;;;;;5.77;2.57;;;8.90;74.80;;;;;;5073057;28;20748;-48
2021/04/08 12:06:42;;;;;;;6.27;2.23;;;9.50;73.00;;;;;;5073887;28;20423;-49
2021/04/08 12:09:10;;;;;;;5.17;2.07;;;9.70;73.00;;;;;;5073358;28;20433;-48
2021/04/08 12:11:50;;;;;;;5.30;2.37;;;9.60;73.90;;;;;;5073708;28;20473;-50
2021/04/08 12:14:17;;;;;;;4.30;2.03;;;9.70;73.80;;;;;;5073829;28;20449;-48
2021/04/08 12:16:44;;;;;;;7.17;2.30;;;10.10;71.90;;;;;;5074151;28;20438;-48
2021/04/08 12:19:21;;;;;;;12.20;6.47;;;10.10;72.20;;;;;;5073769;28;20961;-48
2021/04/08 12:22:01;;;;;;;8.07;3.83;;;10.30;72.00;;;;;;5073431;28;20922;-49
2021/04/08 12:24:28;;;;;;;8.27;3.10;;;10.20;71.30;;;;;;5073006;28;20452;-50
2021/04/08 12:26:55;;;;;;;6.00;2.17;;;10.40;70.90;;;;;;5073107;28;20454;-49
2021/04/08 12:29:21;;;;;;;5.20;2.03;;;10.40;69.10;;;;;;5073340;28;20425;-48
2021/04/08 12:31:50;;;;;;;9.30;2.27;;;10.40;68.40;;;;;;5073450;28;20469;-48
2021/04/08 12:34:17;;;;;;;2.67;1.60;;;10.10;64.60;;;;;;5072708;28;20446;-49
2021/04/08 12:36:43;;;;;;;8.87;3.83;;;10.30;65.60;;;;;;5073177;28;20536;-48
2021/04/08 12:39:10;;;;;;;7.53;2.53;;;10.20;66.30;;;;;;5073194;28;20524;-48
2021/04/08 12:41:37;;;;;;;9.20;2.80;;;10.30;66.20;;;;;;5073447;28;20475;-49
2021/04/08 12:44:04;;;;;;;8.63;2.70;;;10.20;66.30;;;;;;5072461;28;20592;-49
2021/04/08 12:46:31;;;;;;;7.27;2.70;;;10.20;66.50;;;;;;5073194;28;20449;-48
2021/04/08 12:48:57;;;;;;;6.30;2.80;;;10.00;68.00;;;;;;5073166;28;20905;-48
2021/04/08 12:51:24;;;;;;;7.67;2.93;;;9.80;69.50;;;;;;5072922;28;20469;-49
2021/04/08 12:53:50;;;;;;;8.10;3.20;;;9.80;70.00;;;;;;5072906;28;20461;-48
2021/04/08 12:56:17;;;;;;;6.73;3.20;;;10.00;70.10;;;;;;5072268;28;20464;-48
2021/04/08 12:58:44;;;;;;;7.10;2.40;;;10.00;70.00;;;;;;5072806;28;20405;-49